createdAt,value
2022-09-20T00:02:23.160Z,77.07
2022-09-20T00:04:55.500Z,76.56
2022-09-20T00:07:27.869Z,76.65
2022-09-20T00:10:01.765Z,76.58
2022-09-20T00:12:36.257Z,76.80
2022-09-20T00:15:09.634Z,76.96
2022-09-20T00:17:42.171Z,76.69
2022-09-20T00:20:14.510Z,77.00
2022-09-20T00:22:49.762Z,76.78
2022-09-20T00:25:23.782Z,77.11
2022-09-20T00:27:56.197Z,76.82
2022-09-20T00:30:28.761Z,76.42
2022-09-20T00:33:01.582Z,76.62
2022-09-20T00:35:33.967Z,76.72
2022-09-20T00:38:06.343Z,76.75
2022-09-20T00:40:40.500Z,76.93
2022-09-20T00:43:16.283Z,76.80
2022-09-20T00:45:49.839Z,76.62
2022-09-20T00:48:28.597Z,76.61
2022-09-20T00:51:08.131Z,76.30
2022-09-20T00:53:45.496Z,76.19
2022-09-20T00:56:23.599Z,76.84
2022-09-20T00:59:04.303Z,76.87
2022-09-20T01:01:37.068Z,76.74
2022-09-20T01:04:11.395Z,76.63
2022-09-20T01:06:46.179Z,76.25
2022-09-20T01:09:18.685Z,76.45
2022-09-20T01:11:53.758Z,76.75
2022-09-20T01:14:27.351Z,76.83
2022-09-20T01:17:04.070Z,76.69
2022-09-20T01:19:43.287Z,76.57
2022-09-20T01:22:23.878Z,76.26
2022-09-20T01:25:07.579Z,75.93
2022-09-20T01:27:44.100Z,76.41
2022-09-20T01:30:19.695Z,75.83
2022-09-20T01:33:07.686Z,75.90
2022-09-20T01:35:44.705Z,76.20
2022-09-20T01:38:30.013Z,76.23
2022-09-20T01:41:11.287Z,75.66
2022-09-20T01:43:52.061Z,76.33
2022-09-20T01:46:32.825Z,75.92
2022-09-20T01:49:29.232Z,76.19
2022-09-20T01:52:42.738Z,75.84
2022-09-20T01:56:00.748Z,76.04
2022-09-20T01:59:24.167Z,75.70
2022-09-20T02:02:26.473Z,75.49
2022-09-20T02:05:10.824Z,75.88
2022-09-20T02:08:09.228Z,75.94
2022-09-20T02:11:04.239Z,76.03
2022-09-20T02:13:59.621Z,75.76
2022-09-20T02:16:50.883Z,76.00
2022-09-20T02:19:51.749Z,75.69
2022-09-20T02:22:35.541Z,75.81
2022-09-20T02:25:18.630Z,75.98
2022-09-20T02:28:06.264Z,75.74
2022-09-20T02:30:50.856Z,75.80
2022-09-20T02:33:41.093Z,75.96
2022-09-20T02:36:28.054Z,75.79
2022-09-20T02:39:08.555Z,76.04
2022-09-20T02:41:59.569Z,76.39
2022-09-20T02:44:53.826Z,75.71
2022-09-20T02:47:34.258Z,75.47
2022-09-20T02:50:21.665Z,75.91
2022-09-20T02:53:11.371Z,76.01
2022-09-20T02:55:50.473Z,75.49
2022-09-20T02:58:36.304Z,75.91
2022-09-20T03:01:20.199Z,76.14
2022-09-20T03:04:02.373Z,76.14
2022-09-20T03:06:43.099Z,75.81
2022-09-20T03:09:28.693Z,75.98
2022-09-20T03:12:11.600Z,75.72
2022-09-20T03:14:55.097Z,76.15
2022-09-20T03:17:36.688Z,76.15
2022-09-20T03:20:21.221Z,75.84
2022-09-20T03:23:02.258Z,75.86
2022-09-20T03:25:46.964Z,75.70
2022-09-20T03:28:34.706Z,75.52
2022-09-20T03:31:19.332Z,75.53
2022-09-20T03:34:04.043Z,75.41
2022-09-20T03:36:50.764Z,75.80
2022-09-20T03:39:46.506Z,75.84
2022-09-20T03:42:24.604Z,75.39
2022-09-20T03:45:29.363Z,75.89
2022-09-20T03:48:13.515Z,75.62
2022-09-20T03:50:52.559Z,75.64
2022-09-20T03:53:46.482Z,76.02
2022-09-20T03:56:59.069Z,75.97
2022-09-20T03:59:47.975Z,75.93
2022-09-20T04:02:36.626Z,76.37
2022-09-20T04:05:14.425Z,76.18
2022-09-20T04:08:00.927Z,76.30
2022-09-20T04:10:46.988Z,75.83
2022-09-20T04:13:34.748Z,75.59
2022-09-20T04:16:34.708Z,76.00
2022-09-20T04:19:14.416Z,76.12
2022-09-20T04:21:55.945Z,75.96
2022-09-20T04:24:40.916Z,75.89
2022-09-20T04:27:17.978Z,75.63
2022-09-20T04:29:57.697Z,75.45
2022-09-20T04:32:39.637Z,75.87
2022-09-20T04:35:52.005Z,75.56
2022-09-20T04:38:25.013Z,75.88
2022-09-20T04:41:18.677Z,75.66
2022-09-20T04:44:24.507Z,75.13
2022-09-20T04:47:32.052Z,75.55
2022-09-20T04:50:29.288Z,75.30
2022-09-20T04:53:26.451Z,75.22
2022-09-20T04:56:02.127Z,75.49
2022-09-20T04:58:47.916Z,74.91
2022-09-20T05:01:57.097Z,75.04
2022-09-20T05:05:09.143Z,74.91
2022-09-20T05:08:18.261Z,75.09
2022-09-20T05:11:17.492Z,75.65
2022-09-20T05:14:13.922Z,75.14
2022-09-20T05:17:01.359Z,75.27
2022-09-20T05:19:48.497Z,74.90
2022-09-20T05:22:47.191Z,75.23
2022-09-20T05:25:43.079Z,75.34
2022-09-20T05:28:24.117Z,74.89
2022-09-20T05:30:59.018Z,75.39
2022-09-20T05:33:40.700Z,75.31
2022-09-20T05:36:20.714Z,74.99
2022-09-20T05:39:03.564Z,75.27
2022-09-20T05:41:45.978Z,75.42
2022-09-20T05:44:29.380Z,75.46
2022-09-20T05:47:13.703Z,75.11
2022-09-20T05:49:55.857Z,74.73
2022-09-20T05:52:44.863Z,75.04
2022-09-20T05:55:49.623Z,75.11
2022-09-20T05:58:46.917Z,75.19
2022-09-20T06:01:24.575Z,74.98
2022-09-20T06:04:09.488Z,74.66
2022-09-20T06:06:52.548Z,75.15
2022-09-20T06:09:50.874Z,75.53
2022-09-20T06:12:39.396Z,74.96
2022-09-20T06:15:21.592Z,75.45
2022-09-20T06:18:04.594Z,75.62
2022-09-20T06:20:46.560Z,75.26
2022-09-20T06:23:19.199Z,75.17
2022-09-20T06:25:57.399Z,75.27
2022-09-20T06:28:34.292Z,74.89
2022-09-20T06:31:10.295Z,74.37
2022-09-20T06:33:45.720Z,74.51
2022-09-20T06:36:41.736Z,74.41
2022-09-20T06:39:40.461Z,74.13
2022-09-20T06:42:13.128Z,74.10
2022-09-20T06:44:47.144Z,73.97
2022-09-20T06:47:21.884Z,73.93
2022-09-20T06:49:54.549Z,73.90
2022-09-20T06:52:27.140Z,74.34
2022-09-20T06:54:59.687Z,74.12
2022-09-20T06:57:38.005Z,73.92
2022-09-20T07:00:15.873Z,73.92
2022-09-20T07:02:50.038Z,73.57
2022-09-20T07:05:22.816Z,73.66
2022-09-20T07:07:57.597Z,73.65
2022-09-20T07:10:30.352Z,73.70
2022-09-20T07:13:03.060Z,73.12
2022-09-20T07:15:35.800Z,73.16
2022-09-20T07:18:09.699Z,73.39
2022-09-20T07:20:42.340Z,73.44
2022-09-20T07:23:15.794Z,72.91
2022-09-20T07:25:48.312Z,73.21
2022-09-20T07:28:20.879Z,73.07
2022-09-20T07:30:53.465Z,73.04
2022-09-20T07:33:27.350Z,72.76
2022-09-20T07:35:59.864Z,72.56
2022-09-20T07:38:32.658Z,72.77
2022-09-20T07:41:05.532Z,72.78
2022-09-20T07:43:38.185Z,72.32
2022-09-20T07:46:13.878Z,72.03
2022-09-20T07:48:47.900Z,72.49
2022-09-20T07:51:20.509Z,72.10
2022-09-20T07:53:55.266Z,72.53
2022-09-20T07:56:27.770Z,72.46
2022-09-20T07:59:00.252Z,72.20
2022-09-20T08:01:32.818Z,72.37
2022-09-20T08:04:07.212Z,72.12
2022-09-20T08:06:41.823Z,71.75
2022-09-20T08:09:14.512Z,71.77
2022-09-20T08:11:47.672Z,71.66
2022-09-20T08:14:20.979Z,72.17
2022-09-20T08:16:53.737Z,71.98
2022-09-20T08:19:27.749Z,71.80
2022-09-20T08:22:00.259Z,71.56
2022-09-20T08:24:33.205Z,71.77
2022-09-20T08:27:05.727Z,71.43
2022-09-20T08:29:38.088Z,71.81
2022-09-20T08:32:11.556Z,71.39
2022-09-20T08:34:49.223Z,71.31
2022-09-20T08:37:21.987Z,71.36
2022-09-20T08:39:58.394Z,71.51
2022-09-20T08:42:36.706Z,71.50
2022-09-20T08:45:22.239Z,71.71
2022-09-20T08:47:59.024Z,71.54
2022-09-20T08:50:34.741Z,71.73
2022-09-20T08:53:07.468Z,71.43
2022-09-20T08:55:42.813Z,70.96
2022-09-20T08:58:16.567Z,71.41
2022-09-20T09:00:49.012Z,71.03
2022-09-20T09:03:21.625Z,71.07
2022-09-20T09:05:59.518Z,71.40
2022-09-20T09:08:38.733Z,71.36
2022-09-20T09:11:15.634Z,71.24
2022-09-20T09:13:53.501Z,71.17
2022-09-20T09:16:35.083Z,71.66
2022-09-20T09:19:33.197Z,72.00
2022-09-20T09:22:07.976Z,71.99
2022-09-20T09:24:40.429Z,71.85
2022-09-20T09:27:16.706Z,71.44
2022-09-20T09:29:58.429Z,71.54
2022-09-20T09:32:33.085Z,71.79
2022-09-20T09:35:24.011Z,71.72
2022-09-20T09:37:59.381Z,71.52
2022-09-20T09:40:33.285Z,71.65
2022-09-20T09:43:06.153Z,71.74
2022-09-20T09:45:39.724Z,71.26
2022-09-20T09:48:19.658Z,71.39
2022-09-20T09:51:08.785Z,71.08
2022-09-20T09:53:43.538Z,71.17
2022-09-20T09:56:39.702Z,71.26
2022-09-20T09:59:30.618Z,71.12
2022-09-20T10:02:19.976Z,71.03
2022-09-20T10:04:59.304Z,70.75
2022-09-20T10:07:40.199Z,70.99
2022-09-20T10:10:27.259Z,71.24
2022-09-20T10:13:12.728Z,71.22
2022-09-20T10:15:53.584Z,70.85
2022-09-20T10:18:40.436Z,70.82
2022-09-20T10:21:29.818Z,70.74
2022-09-20T10:24:17.103Z,70.54
2022-09-20T10:27:14.174Z,70.96
2022-09-20T10:30:00.486Z,70.99
2022-09-20T10:32:59.976Z,70.88
2022-09-20T10:35:59.256Z,71.09
2022-09-20T10:38:39.933Z,71.00
2022-09-20T10:41:42.857Z,70.77
2022-09-20T10:44:50.341Z,70.96
2022-09-20T10:47:31.751Z,70.63
2022-09-20T10:50:21.481Z,70.77
2022-09-20T10:53:06.865Z,70.30
2022-09-20T10:55:52.128Z,70.06
2022-09-20T10:58:49.394Z,70.38
2022-09-20T11:01:34.414Z,69.69
2022-09-20T11:04:46.823Z,69.85
2022-09-20T11:07:28.229Z,69.79
2022-09-20T11:10:06.373Z,69.56
2022-09-20T11:12:44.340Z,69.79
2022-09-20T11:15:23.308Z,69.67
2022-09-20T11:18:05.175Z,69.37
2022-09-20T11:20:44.549Z,69.70
2022-09-20T11:23:21.726Z,69.39
2022-09-20T11:26:00.759Z,69.19
2022-09-20T11:28:40.690Z,69.07
2022-09-20T11:31:24.289Z,69.15
2022-09-20T11:34:08.615Z,69.11
2022-09-20T11:36:54.206Z,69.09
2022-09-20T11:39:35.113Z,68.88
2022-09-20T11:42:15.185Z,68.76
2022-09-20T11:44:47.993Z,68.96
2022-09-20T11:47:49.937Z,68.83
2022-09-20T11:50:57.300Z,68.70
2022-09-20T11:53:47.003Z,68.53
2022-09-20T11:56:22.752Z,68.19
2022-09-20T11:58:58.449Z,68.13
2022-09-20T12:01:34.408Z,68.05
2022-09-20T12:04:31.924Z,67.74
2022-09-20T12:07:17.847Z,67.93
2022-09-20T12:09:57.434Z,68.04
2022-09-20T12:12:38.323Z,68.21
2022-09-20T12:15:25.483Z,68.32
2022-09-20T12:18:33.218Z,68.30
2022-09-20T12:21:14.987Z,68.09
2022-09-20T12:24:19.352Z,68.34
2022-09-20T12:26:59.521Z,67.86
2022-09-20T12:30:06.889Z,68.17
2022-09-20T12:32:47.136Z,67.79
2022-09-20T12:35:56.210Z,68.17
2022-09-20T12:38:48.434Z,68.11
2022-09-20T12:41:28.544Z,68.12
2022-09-20T12:44:32.901Z,68.07
2022-09-20T12:47:17.432Z,67.86
2022-09-20T12:50:14.375Z,67.93
2022-09-20T12:52:54.213Z,68.27
2022-09-20T12:55:43.917Z,68.06
2022-09-20T12:58:36.286Z,67.81
2022-09-20T13:01:31.782Z,67.90
2022-09-20T13:04:41.282Z,68.41
2022-09-20T13:07:54.255Z,68.37
2022-09-20T13:10:32.509Z,68.08
2022-09-20T13:13:29.076Z,68.28
2022-09-20T13:16:05.788Z,68.39
2022-09-20T13:18:40.577Z,67.94
2022-09-20T13:21:13.412Z,67.84
2022-09-20T13:23:50.936Z,67.75
2022-09-20T13:26:27.619Z,68.29
2022-09-20T13:29:01.554Z,68.10
2022-09-20T13:31:35.787Z,68.17
2022-09-20T13:34:24.156Z,68.23
2022-09-20T13:37:03.092Z,68.40
2022-09-20T13:39:37.463Z,68.12
2022-09-20T13:42:19.868Z,68.27
2022-09-20T13:44:52.637Z,68.47
2022-09-20T13:47:27.318Z,68.29
2022-09-20T13:50:03.136Z,68.33
2022-09-20T13:52:45.795Z,68.65
2022-09-20T13:55:31.149Z,68.78
2022-09-20T13:58:07.547Z,68.76
2022-09-20T14:00:47.158Z,68.94
2022-09-20T14:03:21.141Z,69.20
2022-09-20T14:06:00.077Z,69.15
2022-09-20T14:08:36.944Z,68.89
2022-09-20T14:11:16.451Z,69.33
2022-09-20T14:13:54.692Z,69.08
2022-09-20T14:16:31.207Z,69.35
2022-09-20T14:19:09.758Z,69.72
2022-09-20T14:21:44.563Z,69.27
2022-09-20T14:24:26.982Z,70.01
2022-09-20T14:27:18.442Z,69.71
2022-09-20T14:29:52.069Z,69.70
2022-09-20T14:32:40.250Z,69.81
2022-09-20T14:35:17.682Z,70.17
2022-09-20T14:37:53.937Z,70.18
2022-09-20T14:40:28.164Z,70.22
2022-09-20T14:43:02.791Z,70.10
2022-09-20T14:45:38.131Z,70.40
2022-09-20T14:48:32.897Z,70.32
2022-09-20T14:51:26.128Z,70.63
2022-09-20T14:54:25.292Z,70.39
2022-09-20T14:56:58.901Z,70.66
2022-09-20T14:59:37.231Z,70.37
2022-09-20T15:02:14.254Z,70.80
2022-09-20T15:04:54.710Z,70.99
2022-09-20T15:07:27.496Z,70.62
2022-09-20T15:10:01.640Z,70.94
2022-09-20T15:12:35.387Z,71.30
2022-09-20T15:15:15.102Z,71.31
2022-09-20T15:17:47.801Z,71.50
2022-09-20T15:20:24.309Z,71.76
2022-09-20T15:22:58.194Z,71.58
2022-09-20T15:25:32.634Z,71.60
2022-09-20T15:28:08.166Z,71.79
2022-09-20T15:30:42.923Z,72.11
2022-09-20T15:33:16.404Z,72.21
2022-09-20T15:35:49.432Z,71.87
2022-09-20T15:38:22.899Z,71.93
2022-09-20T15:40:56.877Z,72.17
2022-09-20T15:43:31.258Z,71.93
2022-09-20T15:46:18.687Z,72.11
2022-09-20T15:48:51.172Z,72.55
2022-09-20T15:51:23.815Z,72.75
2022-09-20T15:53:58.006Z,72.90
2022-09-20T15:56:33.610Z,72.97
2022-09-20T15:59:07.980Z,72.76
2022-09-20T16:01:42.235Z,73.33
2022-09-20T16:04:17.560Z,73.06
2022-09-20T16:06:51.046Z,73.23
2022-09-20T16:09:23.580Z,73.53
2022-09-20T16:12:00.461Z,73.17
2022-09-20T16:14:32.926Z,73.12
2022-09-20T16:17:05.494Z,73.58
2022-09-20T16:19:38.662Z,73.91
2022-09-20T16:22:12.704Z,74.12
2022-09-20T16:24:45.135Z,74.09
2022-09-20T16:27:19.074Z,73.99
2022-09-20T16:29:52.051Z,74.31
2022-09-20T16:32:24.571Z,73.89
2022-09-20T16:34:58.635Z,73.87
2022-09-20T16:37:33.177Z,74.12
2022-09-20T16:40:07.304Z,74.08
2022-09-20T16:42:41.715Z,74.19
2022-09-20T16:45:14.453Z,74.39
2022-09-20T16:47:47.903Z,74.76
2022-09-20T16:50:20.619Z,74.35
2022-09-20T16:52:53.379Z,74.32
2022-09-20T16:55:26.160Z,74.31
2022-09-20T16:58:00.425Z,74.42
2022-09-20T17:00:34.059Z,74.33
2022-09-20T17:03:06.890Z,74.54
2022-09-20T17:05:39.857Z,74.52
2022-09-20T17:08:12.636Z,74.40
2022-09-20T17:10:46.562Z,74.45
2022-09-20T17:13:21.676Z,74.92
2022-09-20T17:16:02.557Z,74.79
2022-09-20T17:18:35.539Z,75.08
2022-09-20T17:21:09.512Z,74.84
2022-09-20T17:23:46.484Z,74.82
2022-09-20T17:26:25.208Z,75.26
2022-09-20T17:29:01.288Z,74.96
2022-09-20T17:31:35.627Z,75.08
2022-09-20T17:34:10.472Z,75.45
2022-09-20T17:36:44.998Z,75.13
2022-09-20T17:39:18.521Z,74.96
2022-09-20T17:41:51.894Z,75.27
2022-09-20T17:44:26.034Z,75.01
2022-09-20T17:46:58.595Z,75.28
2022-09-20T17:49:31.712Z,74.79
2022-09-20T17:52:08.143Z,74.96
2022-09-20T17:54:40.956Z,75.39
2022-09-20T17:57:13.951Z,74.93
2022-09-20T17:59:48.184Z,74.90
2022-09-20T18:02:21.122Z,75.52
2022-09-20T18:04:53.959Z,75.41
2022-09-20T18:07:26.719Z,74.90
2022-09-20T18:10:02.365Z,75.08
2022-09-20T18:12:36.448Z,75.23
2022-09-20T18:15:11.134Z,75.48
2022-09-20T18:17:43.891Z,75.13
2022-09-20T18:20:16.807Z,74.96
2022-09-20T18:22:50.595Z,74.99
2022-09-20T18:25:24.423Z,74.84
2022-09-20T18:27:57.510Z,74.59
2022-09-20T18:30:32.289Z,75.51
2022-09-20T18:33:04.972Z,75.59
2022-09-20T18:35:40.974Z,75.94
2022-09-20T18:38:17.447Z,75.33
2022-09-20T18:40:56.008Z,75.74
2022-09-20T18:43:30.266Z,75.31
2022-09-20T18:46:04.684Z,75.38
2022-09-20T18:48:39.744Z,75.18
2022-09-20T18:51:13.198Z,75.00
2022-09-20T18:53:46.206Z,75.13
2022-09-20T18:56:23.093Z,75.07
2022-09-20T18:58:58.085Z,75.07
2022-09-20T19:01:47.831Z,75.66
2022-09-20T19:04:45.561Z,75.13
2022-09-20T19:07:26.150Z,75.41
2022-09-20T19:10:07.870Z,75.11
2022-09-20T19:12:47.225Z,75.13
2022-09-20T19:15:36.729Z,75.60
2022-09-20T19:18:30.901Z,75.29
2022-09-20T19:21:15.614Z,75.34
2022-09-20T19:24:03.478Z,75.01
2022-09-20T19:26:40.945Z,75.47
2022-09-20T19:29:19.599Z,75.94
2022-09-20T19:31:55.730Z,75.46
2022-09-20T19:34:32.449Z,74.78
2022-09-20T19:37:20.911Z,75.67
2022-09-20T19:40:15.157Z,75.42
2022-09-20T19:43:00.375Z,75.75
2022-09-20T19:45:42.217Z,75.00
2022-09-20T19:48:25.619Z,75.59
2022-09-20T19:51:04.454Z,75.00
2022-09-20T19:53:40.741Z,75.32
2022-09-20T19:56:23.610Z,75.09
2022-09-20T19:58:57.006Z,75.37
2022-09-20T20:01:30.476Z,75.30
2022-09-20T20:04:03.932Z,75.34
2022-09-20T20:06:46.901Z,75.16
2022-09-20T20:09:27.136Z,75.27
2022-09-20T20:12:07.139Z,75.22
2022-09-20T20:14:49.117Z,75.16
2022-09-20T20:17:36.572Z,75.25
2022-09-20T20:20:33.932Z,75.31
2022-09-20T20:23:39.799Z,75.33
2022-09-20T20:26:26.770Z,75.31
2022-09-20T20:29:00.232Z,75.70
2022-09-20T20:31:33.181Z,75.20
2022-09-20T20:34:09.545Z,75.69
2022-09-20T20:36:42.627Z,75.59
2022-09-20T20:39:17.655Z,75.36
2022-09-20T20:41:52.754Z,75.62
2022-09-20T20:44:28.579Z,75.21
2022-09-20T20:47:04.385Z,75.42
2022-09-20T20:49:40.063Z,75.53
2022-09-20T20:52:12.851Z,75.30
2022-09-20T20:54:46.730Z,75.31
2022-09-20T20:57:19.378Z,75.50
2022-09-20T20:59:52.036Z,75.63
2022-09-20T21:02:24.685Z,75.60
2022-09-20T21:04:59.861Z,75.26
2022-09-20T21:07:32.433Z,75.70
2022-09-20T21:10:08.373Z,75.39
2022-09-20T21:12:40.919Z,75.62
2022-09-20T21:15:13.602Z,75.31
2022-09-20T21:17:50.653Z,75.10
2022-09-20T21:20:23.206Z,75.04
2022-09-20T21:22:56.460Z,74.86
2022-09-20T21:25:30.442Z,75.11
2022-09-20T21:28:05.159Z,75.32
2022-09-20T21:30:37.708Z,75.38
2022-09-20T21:33:11.587Z,75.42
2022-09-20T21:35:44.104Z,75.44
2022-09-20T21:38:16.790Z,75.73
2022-09-20T21:40:50.743Z,75.51
2022-09-20T21:43:23.253Z,75.52
2022-09-20T21:45:57.166Z,75.35
2022-09-20T21:48:29.854Z,75.66
2022-09-20T21:51:04.150Z,75.49
2022-09-20T21:53:37.175Z,75.46
2022-09-20T21:56:14.231Z,75.40
2022-09-20T21:58:47.025Z,75.51
2022-09-20T22:01:21.562Z,75.50
2022-09-20T22:03:56.587Z,75.75
2022-09-20T22:06:30.430Z,75.61
2022-09-20T22:09:05.706Z,75.43
2022-09-20T22:11:41.793Z,75.55
2022-09-20T22:14:16.299Z,75.47
2022-09-20T22:16:51.448Z,75.58
2022-09-20T22:19:24.652Z,75.46
2022-09-20T22:21:57.168Z,75.48
2022-09-20T22:24:30.091Z,75.70
2022-09-20T22:27:03.997Z,75.12
2022-09-20T22:29:36.393Z,75.11
2022-09-20T22:32:08.902Z,75.63
2022-09-20T22:34:41.401Z,75.44
2022-09-20T22:37:13.782Z,75.75
2022-09-20T22:39:46.740Z,75.55
2022-09-20T22:42:20.565Z,75.60
2022-09-20T22:44:53.124Z,75.55
2022-09-20T22:47:25.630Z,76.06
2022-09-20T22:49:57.972Z,75.81
2022-09-20T22:52:30.481Z,76.23
2022-09-20T22:55:02.962Z,75.42
2022-09-20T22:57:37.548Z,75.61
2022-09-20T23:00:11.207Z,75.90
2022-09-20T23:02:43.692Z,75.83
2022-09-20T23:05:18.251Z,75.80
2022-09-20T23:07:50.685Z,75.70
2022-09-20T23:10:23.173Z,75.47
2022-09-20T23:12:57.058Z,75.45
2022-09-20T23:15:29.487Z,75.86
2022-09-20T23:18:01.979Z,75.71
2022-09-20T23:20:34.268Z,75.83
2022-09-20T23:23:06.765Z,75.83
2022-09-20T23:25:39.264Z,75.64
2022-09-20T23:28:13.149Z,76.16
2022-09-20T23:30:45.524Z,76.04
2022-09-20T23:33:18.029Z,75.88
2022-09-20T23:35:51.741Z,75.97
2022-09-20T23:38:24.272Z,75.98
2022-09-20T23:41:01.555Z,75.82
2022-09-20T23:43:36.521Z,75.98
2022-09-20T23:46:10.307Z,75.96
2022-09-20T23:48:43.531Z,75.79
2022-09-20T23:51:18.259Z,75.84
2022-09-20T23:53:51.542Z,75.94
2022-09-20T23:56:24.613Z,76.23
2022-09-20T23:58:58.509Z,76.50
